createdAt,value
2016-09-14T00:00:35.505Z,0
2016-09-14T00:01:48.113Z,0
2016-09-14T00:02:33.903Z,0
2016-09-14T00:03:34.823Z,0
2016-09-14T00:04:34.873Z,0
2016-09-14T00:05:33.906Z,0
2016-09-14T00:06:34.379Z,0
2016-09-14T00:07:34.990Z,0
2016-09-14T00:08:34.463Z,0
2016-09-14T00:09:33.771Z,0
2016-09-14T00:10:41.035Z,0
2016-09-14T00:11:34.440Z,0
2016-09-14T00:12:47.823Z,0
2016-09-14T00:13:33.899Z,0
2016-09-14T00:14:33.903Z,0
2016-09-14T00:15:33.309Z,0
2016-09-14T00:16:36.012Z,0
2016-09-14T00:17:34.923Z,0
2016-09-14T00:18:35.320Z,0
2016-09-14T00:19:34.687Z,0
2016-09-14T00:20:35.137Z,0
2016-09-14T00:21:34.769Z,0
2016-09-14T00:22:35.794Z,0
2016-09-14T00:23:35.444Z,0
2016-09-14T00:24:34.218Z,0
2016-09-14T00:25:48.997Z,0
2016-09-14T00:26:34.790Z,0
2016-09-14T00:27:48.140Z,0
2016-09-14T00:28:33.469Z,0
2016-09-14T00:29:48.650Z,0
2016-09-14T00:30:35.247Z,0
2016-09-14T00:31:34.706Z,0
2016-09-14T00:32:32.340Z,0
2016-09-14T00:33:33.734Z,0
2016-09-14T00:34:34.480Z,0
2016-09-14T00:35:32.359Z,0
2016-09-14T00:36:40.379Z,0
2016-09-14T00:37:33.942Z,0
2016-09-14T00:38:47.564Z,0
2016-09-14T00:39:32.756Z,0
2016-09-14T00:40:34.822Z,0
2016-09-14T00:41:33.011Z,0
2016-09-14T00:42:33.422Z,0
2016-09-14T00:43:35.440Z,0
2016-09-14T00:44:33.689Z,0
2016-09-14T00:45:33.745Z,0
2016-09-14T00:46:32.935Z,0
2016-09-14T00:47:33.797Z,0
2016-09-14T00:48:32.550Z,0
2016-09-14T00:49:33.741Z,0
2016-09-14T00:50:35.014Z,0
2016-09-14T00:51:34.330Z,0
2016-09-14T00:52:34.707Z,0
2016-09-14T00:53:48.052Z,0
2016-09-14T00:54:34.262Z,0
2016-09-14T00:55:35.642Z,0
2016-09-14T00:56:33.852Z,0
2016-09-14T00:57:32.080Z,0
2016-09-14T00:58:47.945Z,0
2016-09-14T00:59:32.816Z,0
2016-09-14T01:00:46.696Z,0
2016-09-14T01:01:32.793Z,0
2016-09-14T01:02:32.484Z,0
2016-09-14T01:03:31.639Z,0
2016-09-14T01:04:31.705Z,0
2016-09-14T01:05:31.732Z,0
2016-09-14T01:06:31.584Z,0
2016-09-14T01:07:32.122Z,0
2016-09-14T01:08:31.570Z,0
2016-09-14T01:09:31.543Z,0
2016-09-14T01:10:34.207Z,0
2016-09-14T01:11:31.561Z,0
2016-09-14T01:12:31.474Z,0
2016-09-14T01:13:32.096Z,0
2016-09-14T01:14:31.606Z,0
2016-09-14T01:15:31.406Z,0
2016-09-14T01:16:31.714Z,0
2016-09-14T01:17:46.138Z,0
2016-09-14T01:18:31.312Z,0
2016-09-14T01:19:38.032Z,0
2016-09-14T01:20:33.987Z,0
2016-09-14T01:21:31.261Z,0
2016-09-14T01:22:31.224Z,0
2016-09-14T01:24:31.851Z,0
2016-09-14T01:25:31.544Z,0
2016-09-14T01:26:46.294Z,0
2016-09-14T01:27:32.428Z,0
2016-09-14T01:28:33.272Z,0
2016-09-14T01:29:33.280Z,0
2016-09-14T01:30:46.426Z,0
2016-09-14T01:31:34.385Z,0
2016-09-14T01:32:32.150Z,0
2016-09-14T01:33:32.466Z,0
2016-09-14T01:34:32.166Z,0
2016-09-14T01:35:32.793Z,0
2016-09-14T01:36:32.886Z,0
2016-09-14T01:37:32.434Z,0
2016-09-14T01:38:32.452Z,0
2016-09-14T01:39:32.350Z,0
2016-09-14T01:40:31.466Z,0
2016-09-14T01:41:30.973Z,0
2016-09-14T01:42:31.545Z,0
2016-09-14T01:43:31.604Z,0
2016-09-14T01:44:30.743Z,0
2016-09-14T01:45:30.904Z,0
2016-09-14T01:46:30.754Z,0
2016-09-14T01:47:31.763Z,0
2016-09-14T01:48:31.472Z,0
2016-09-14T01:49:45.665Z,0
2016-09-14T01:50:45.352Z,0
2016-09-14T01:51:45.311Z,0
2016-09-14T01:52:45.269Z,0
2016-09-14T01:53:51.528Z,0
2016-09-14T01:54:30.742Z,0
2016-09-14T01:55:31.241Z,0
2016-09-14T01:56:32.270Z,0
2016-09-14T01:57:46.477Z,0
2016-09-14T01:58:30.543Z,0
2016-09-14T01:59:45.789Z,0
2016-09-14T02:00:30.865Z,0
2016-09-14T02:01:31.080Z,0
2016-09-14T02:02:30.716Z,0
2016-09-14T02:03:30.451Z,0
2016-09-14T02:04:36.941Z,0
2016-09-14T02:05:31.172Z,0
2016-09-14T02:06:46.283Z,0
2016-09-14T02:07:32.686Z,0
2016-09-14T02:08:44.903Z,0
2016-09-14T02:09:30.143Z,0
2016-09-14T02:10:45.135Z,0
2016-09-14T02:11:30.181Z,0
2016-09-14T02:12:30.679Z,0
2016-09-14T02:13:31.618Z,0
2016-09-14T02:14:31.551Z,0
2016-09-14T02:15:30.754Z,0
2016-09-14T02:16:45.255Z,0
2016-09-14T02:17:30.051Z,0
2016-09-14T02:18:29.964Z,0
2016-09-14T02:19:45.029Z,0
2016-09-14T02:20:29.981Z,0
2016-09-14T02:21:29.890Z,0
2016-09-14T02:22:29.880Z,0
2016-09-14T02:23:29.841Z,0
2016-09-14T02:24:29.826Z,0
2016-09-14T02:25:30.783Z,0
2016-09-14T02:26:29.785Z,0
2016-09-14T02:27:44.487Z,0
2016-09-14T02:28:29.713Z,0
2016-09-14T02:29:45.261Z,0
2016-09-14T02:30:29.694Z,0
2016-09-14T02:31:29.947Z,0
2016-09-14T02:32:30.149Z,0
2016-09-14T02:33:29.659Z,0
2016-09-14T02:34:29.677Z,0
2016-09-14T02:35:29.930Z,0
2016-09-14T02:36:30.269Z,0
2016-09-14T02:37:32.176Z,0
2016-09-14T02:38:30.201Z,0
2016-09-14T02:39:30.121Z,0
2016-09-14T02:40:29.605Z,0
2016-09-14T02:41:44.309Z,0
2016-09-14T02:42:29.805Z,0
2016-09-14T02:43:29.716Z,0
2016-09-14T02:44:29.378Z,0
2016-09-14T02:45:30.271Z,0
2016-09-14T02:46:29.331Z,0
2016-09-14T02:47:29.744Z,0
2016-09-14T02:48:29.283Z,0
2016-09-14T02:49:30.267Z,0
2016-09-14T02:50:29.531Z,0
2016-09-14T02:51:32.066Z,0
2016-09-14T02:52:29.250Z,0
2016-09-14T02:53:30.556Z,0
2016-09-14T02:54:30.025Z,0
2016-09-14T02:55:31.508Z,0
2016-09-14T02:56:31.519Z,0
2016-09-14T02:57:30.829Z,0
2016-09-14T02:58:29.200Z,0
2016-09-14T02:59:33.231Z,0
2016-09-14T03:00:44.690Z,0
2016-09-14T03:01:32.205Z,0
2016-09-14T03:02:30.472Z,0
2016-09-14T03:03:29.593Z,0
2016-09-14T03:04:28.992Z,0
2016-09-14T03:05:29.613Z,0
2016-09-14T03:06:28.932Z,0
2016-09-14T03:07:29.255Z,0
2016-09-14T03:08:28.853Z,0
2016-09-14T03:09:28.871Z,0
2016-09-14T03:10:30.942Z,0
2016-09-14T03:11:31.639Z,0
2016-09-14T03:12:29.692Z,0
2016-09-14T03:13:29.101Z,0
2016-09-14T03:14:29.028Z,0
2016-09-14T03:15:28.763Z,0
2016-09-14T03:16:28.768Z,0
2016-09-14T03:17:28.659Z,0
2016-09-14T03:18:28.588Z,0
2016-09-14T03:19:34.992Z,0
2016-09-14T03:20:28.896Z,0
2016-09-14T03:21:28.556Z,0
2016-09-14T03:22:28.916Z,0
2016-09-14T03:23:29.525Z,0
2016-09-14T03:24:28.929Z,0
2016-09-14T03:25:28.753Z,0
2016-09-14T03:26:29.651Z,0
2016-09-14T03:27:33.151Z,0
2016-09-14T03:28:29.516Z,0
2016-09-14T03:29:32.447Z,0
2016-09-14T03:30:48.220Z,0
2016-09-14T03:31:30.359Z,0
2016-09-14T03:32:44.184Z,0
2016-09-14T03:33:30.548Z,0
2016-09-14T03:34:29.489Z,0
2016-09-14T03:35:30.486Z,0
2016-09-14T03:36:31.046Z,0
2016-09-14T03:37:29.704Z,0
2016-09-14T03:39:29.660Z,0
2016-09-14T03:40:28.536Z,0
2016-09-14T03:41:28.797Z,0
2016-09-14T03:42:28.762Z,0
2016-09-14T03:43:31.232Z,0
2016-09-14T03:44:30.385Z,0
2016-09-14T03:45:30.696Z,0
2016-09-14T03:46:30.283Z,0
2016-09-14T03:47:28.517Z,0
2016-09-14T03:48:43.684Z,0
2016-09-14T03:49:29.430Z,0
2016-09-14T03:50:28.714Z,0
2016-09-14T03:51:30.061Z,0
2016-09-14T03:52:28.989Z,0
2016-09-14T03:53:30.045Z,0
2016-09-14T03:54:31.115Z,0
2016-09-14T03:55:31.918Z,0
2016-09-14T03:56:31.158Z,0
2016-09-14T03:57:29.628Z,0
2016-09-14T03:58:30.093Z,0
2016-09-14T04:00:28.696Z,0
2016-09-14T04:01:28.065Z,0
2016-09-14T14:47:38.440Z,70
2016-09-14T14:48:37.420Z,210
2016-09-14T14:49:37.561Z,400
2016-09-14T14:50:37.140Z,215
2016-09-14T14:51:37.090Z,65
2016-09-14T14:52:51.841Z,80
2016-09-14T14:53:37.483Z,80
2016-09-14T14:54:37.048Z,80
2016-09-14T14:55:37.081Z,75
2016-09-14T14:56:37.418Z,75
2016-09-14T14:57:36.997Z,75
2016-09-14T14:58:37.408Z,95
2016-09-14T14:59:52.009Z,70
2016-09-14T15:00:37.888Z,65
2016-09-14T15:01:37.280Z,65
2016-09-14T15:02:37.017Z,65
2016-09-14T15:03:37.370Z,65
2016-09-14T15:04:37.015Z,65
2016-09-14T15:05:37.405Z,65
2016-09-14T15:06:37.503Z,65
2016-09-14T15:07:37.221Z,65
2016-09-14T15:08:51.512Z,65
2016-09-14T15:09:36.929Z,75
2016-09-14T15:10:52.411Z,85
2016-09-14T15:11:37.471Z,65
2016-09-14T15:12:37.077Z,65
2016-09-14T15:13:36.744Z,70
2016-09-14T15:14:37.169Z,75
2016-09-14T15:15:36.777Z,65
2016-09-14T15:16:37.177Z,65
2016-09-14T15:17:36.977Z,65
2016-09-14T15:18:36.638Z,65
2016-09-14T15:19:36.668Z,65
2016-09-14T15:20:37.509Z,60
2016-09-14T15:21:51.299Z,65
2016-09-14T15:22:36.943Z,60
2016-09-14T15:23:51.558Z,65
2016-09-14T15:24:36.608Z,65
2016-09-14T15:25:51.429Z,65
2016-09-14T15:26:36.473Z,65
2016-09-14T15:27:36.919Z,65
2016-09-14T15:28:36.484Z,65
2016-09-14T15:29:37.217Z,65
2016-09-14T15:30:36.777Z,65
2016-09-14T15:31:36.555Z,60
2016-09-14T15:32:36.452Z,60
2016-09-14T15:33:37.189Z,60
2016-09-14T15:34:51.179Z,60
2016-09-14T15:35:37.484Z,60
2016-09-14T15:36:51.000Z,55
2016-09-14T15:37:36.259Z,55
2016-09-14T15:38:50.985Z,55
2016-09-14T15:39:36.227Z,55
2016-09-14T15:40:52.226Z,50
2016-09-14T15:41:36.469Z,50
2016-09-14T15:42:37.798Z,50
2016-09-14T15:43:36.205Z,50
2016-09-14T15:44:36.544Z,45
2016-09-14T15:45:36.238Z,45
2016-09-14T15:46:36.615Z,45
2016-09-14T15:47:36.424Z,40
2016-09-14T15:48:36.107Z,40
2016-09-14T15:49:38.132Z,40
2016-09-14T15:50:36.225Z,40
2016-09-14T15:51:36.138Z,40
2016-09-14T15:52:36.495Z,40
2016-09-14T15:54:36.666Z,40
2016-09-14T15:55:36.027Z,40
2016-09-14T15:56:36.089Z,40
2016-09-14T15:57:50.676Z,40
2016-09-14T15:58:35.952Z,40
2016-09-14T15:59:37.031Z,40
2016-09-14T16:01:50.702Z,35
2016-09-14T16:02:50.527Z,35
2016-09-14T16:03:50.492Z,35
2016-09-14T16:04:36.095Z,35
2016-09-14T16:05:36.011Z,35
2016-09-14T16:06:50.450Z,35
2016-09-14T16:07:35.941Z,30
2016-09-14T16:08:50.415Z,30
2016-09-14T16:09:36.445Z,30
2016-09-14T16:10:36.414Z,30
2016-09-14T16:11:35.909Z,30
2016-09-14T16:12:36.283Z,30
2016-09-14T16:13:35.794Z,30
2016-09-14T16:14:36.580Z,30
2016-09-14T16:15:36.561Z,25
2016-09-14T16:16:36.623Z,25
2016-09-14T16:17:50.600Z,25
2016-09-14T16:18:36.696Z,25
2016-09-14T16:19:41.743Z,25
2016-09-14T16:20:35.482Z,25
2016-09-14T16:21:35.853Z,25
2016-09-14T16:22:36.052Z,25
2016-09-14T16:23:35.751Z,25
2016-09-14T16:24:50.156Z,25
2016-09-14T16:25:35.597Z,25
2016-09-14T16:26:35.642Z,20
2016-09-14T16:27:35.513Z,20
2016-09-14T16:28:35.747Z,20
2016-09-14T16:29:35.982Z,20
2016-09-14T16:30:35.250Z,20
2016-09-14T16:31:49.942Z,20
2016-09-14T16:32:35.214Z,20
2016-09-14T16:33:35.202Z,20
2016-09-14T16:34:35.669Z,20
2016-09-14T16:35:35.496Z,20
2016-09-14T16:36:35.671Z,20
2016-09-14T16:37:35.224Z,20
2016-09-14T16:38:36.165Z,20
2016-09-14T16:39:35.103Z,20
2016-09-14T16:40:35.105Z,20
2016-09-14T16:41:36.068Z,25
2016-09-14T16:42:35.170Z,20
2016-09-14T16:43:35.136Z,15
2016-09-14T16:44:49.735Z,15
2016-09-14T16:45:36.032Z,15
2016-09-14T16:46:35.128Z,15
2016-09-14T16:47:35.277Z,15
2016-09-14T16:48:35.011Z,15
2016-09-14T16:49:35.480Z,15
2016-09-14T16:50:34.917Z,15
2016-09-14T16:51:34.924Z,15
2016-09-14T16:52:34.920Z,15
2016-09-14T16:53:37.361Z,10
2016-09-14T16:54:34.987Z,10
2016-09-14T16:55:37.280Z,10
2016-09-14T16:56:41.103Z,10
2016-09-14T16:57:34.861Z,10
2016-09-14T16:58:34.743Z,10
2016-09-14T16:59:35.025Z,10
2016-09-14T17:00:34.815Z,10
2016-09-14T17:01:36.367Z,10
2016-09-14T17:02:34.654Z,10
2016-09-14T17:03:34.623Z,10
2016-09-14T17:04:34.776Z,10
2016-09-14T17:05:34.964Z,10
2016-09-14T17:06:34.639Z,10
2016-09-14T17:07:34.552Z,10
2016-09-14T17:08:34.524Z,5
2016-09-14T17:09:34.550Z,5
2016-09-14T17:10:34.684Z,5
2016-09-14T17:11:34.767Z,5
2016-09-14T17:12:35.917Z,5
2016-09-14T17:13:34.492Z,5
2016-09-14T17:14:34.626Z,5
2016-09-14T17:15:34.474Z,5
2016-09-14T17:16:49.144Z,5
2016-09-14T17:17:34.717Z,5
2016-09-14T17:18:34.471Z,5
2016-09-14T17:19:34.444Z,5
2016-09-14T17:20:34.323Z,5
2016-09-14T17:21:52.536Z,5
2016-09-14T17:22:34.980Z,5
2016-09-14T17:23:49.498Z,5
2016-09-14T17:24:34.267Z,0
2016-09-14T17:25:34.295Z,0
2016-09-14T17:26:34.249Z,0
2016-09-14T17:27:34.167Z,0
2016-09-14T17:28:34.189Z,0
2016-09-14T17:29:34.145Z,0
2016-09-14T17:30:36.147Z,0
2016-09-14T17:31:49.170Z,0
2016-09-14T17:32:34.052Z,0
2016-09-14T17:33:34.053Z,0
2016-09-14T17:34:34.399Z,0
2016-09-14T17:35:48.860Z,0
2016-09-14T17:36:34.147Z,0
2016-09-14T17:37:34.091Z,0
2016-09-14T17:38:33.940Z,0
2016-09-14T17:39:34.154Z,0
2016-09-14T17:40:34.723Z,0
2016-09-14T17:41:34.448Z,0
2016-09-14T17:42:33.846Z,0
2016-09-14T17:43:34.463Z,0
2016-09-14T17:44:33.921Z,0
2016-09-14T17:45:34.070Z,0
2016-09-14T17:46:34.287Z,0
2016-09-14T17:47:33.840Z,0
2016-09-14T17:48:33.934Z,0
2016-09-14T17:49:33.709Z,0
2016-09-14T17:50:49.472Z,0
2016-09-14T17:51:34.134Z,0
2016-09-14T17:52:42.636Z,0
2016-09-14T17:53:33.694Z,0
2016-09-14T17:54:48.370Z,0
2016-09-14T17:55:34.017Z,0
2016-09-14T17:56:33.842Z,0
2016-09-14T17:57:33.616Z,0
2016-09-14T17:58:33.915Z,0
2016-09-14T17:59:34.171Z,0
2016-09-14T18:00:34.341Z,0
2016-09-14T18:02:02.990Z,0
2016-09-14T18:02:48.183Z,0
2016-09-14T18:03:33.918Z,0
2016-09-14T18:04:34.287Z,0
2016-09-14T18:05:48.142Z,0
2016-09-14T18:06:33.450Z,0
2016-09-14T18:07:48.105Z,0
2016-09-14T18:08:33.381Z,0
2016-09-14T18:09:33.908Z,0
2016-09-14T18:10:34.224Z,0
2016-09-14T18:11:34.451Z,0
2016-09-14T18:12:33.651Z,0
2016-09-14T18:13:33.758Z,0
2016-09-14T18:14:34.013Z,0
2016-09-14T18:15:33.804Z,0
2016-09-14T18:17:33.931Z,0
2016-09-14T18:18:33.703Z,0
2016-09-14T18:19:34.242Z,0
2016-09-14T18:20:33.788Z,0
2016-09-14T18:21:48.561Z,0
2016-09-14T18:22:33.464Z,0
2016-09-14T18:23:33.321Z,0
2016-09-14T18:24:33.034Z,0
2016-09-14T18:25:33.062Z,0
2016-09-14T18:26:33.561Z,0
2016-09-14T18:27:33.136Z,0
2016-09-14T18:28:33.259Z,0
2016-09-14T18:29:33.533Z,0
2016-09-14T18:30:33.894Z,0
2016-09-14T18:31:32.880Z,0
2016-09-14T18:32:33.101Z,0
2016-09-14T18:33:32.973Z,0
2016-09-14T18:34:48.064Z,0
2016-09-14T18:35:32.929Z,0
2016-09-14T18:36:47.532Z,0
2016-09-14T18:37:32.843Z,0
2016-09-14T18:38:33.101Z,0
2016-09-14T18:39:33.393Z,0
2016-09-14T18:40:33.600Z,0
2016-09-14T18:41:32.778Z,0
2016-09-14T18:42:32.760Z,0
2016-09-14T18:43:32.763Z,0
2016-09-14T18:44:32.893Z,0
2016-09-14T18:45:33.543Z,0
2016-09-14T18:46:33.293Z,0
2016-09-14T18:47:47.299Z,0
2016-09-14T18:48:33.831Z,0
2016-09-14T18:49:33.854Z,0
2016-09-14T18:50:33.556Z,0
2016-09-14T18:51:33.401Z,0
2016-09-14T18:52:33.694Z,0
2016-09-14T18:53:32.672Z,0
2016-09-14T18:54:32.453Z,0
2016-09-14T18:55:33.104Z,0
2016-09-14T18:56:47.160Z,0
2016-09-14T18:57:32.419Z,0
2016-09-14T18:58:39.337Z,0
2016-09-14T18:59:32.390Z,0
2016-09-14T19:00:48.170Z,0
2016-09-14T19:01:32.309Z,0
2016-09-14T19:02:32.669Z,0
2016-09-14T19:03:32.728Z,0
2016-09-14T19:04:32.522Z,0
2016-09-14T19:05:32.515Z,0
2016-09-14T19:06:32.221Z,0
2016-09-14T19:07:32.241Z,0
2016-09-14T19:08:32.954Z,0
2016-09-14T19:09:32.148Z,0
2016-09-14T19:10:33.320Z,0
2016-09-14T19:11:32.136Z,0
2016-09-14T19:12:32.125Z,0
2016-09-14T19:13:32.239Z,0
2016-09-14T19:14:32.175Z,0
2016-09-14T19:15:32.692Z,0
2016-09-14T19:16:33.070Z,0
2016-09-14T19:17:32.083Z,0
2016-09-14T19:19:32.169Z,0
2016-09-14T19:20:47.781Z,0
2016-09-14T19:21:33.054Z,0
2016-09-14T19:22:32.926Z,0
2016-09-14T19:23:32.000Z,0
2016-09-14T19:24:32.022Z,0
2016-09-14T19:25:32.199Z,0
2016-09-14T19:26:32.005Z,0
2016-09-14T19:27:46.498Z,0
2016-09-14T19:28:32.063Z,0
2016-09-14T19:29:33.718Z,0
2016-09-14T19:30:31.822Z,0
2016-09-14T19:31:31.720Z,0
2016-09-14T19:32:31.902Z,0
2016-09-14T19:33:32.656Z,0
2016-09-14T19:34:32.121Z,0
2016-09-14T19:35:31.854Z,0
2016-09-14T19:36:46.914Z,0
2016-09-14T19:37:32.106Z,0
2016-09-14T19:38:31.801Z,0
2016-09-14T19:39:31.571Z,0
2016-09-14T19:40:47.553Z,0
2016-09-14T19:41:46.283Z,0
2016-09-14T19:42:32.019Z,0
2016-09-14T19:43:46.336Z,0
2016-09-14T19:44:46.412Z,0
2016-09-14T19:45:32.187Z,0
2016-09-14T19:46:32.328Z,0
2016-09-14T19:47:31.939Z,0
2016-09-14T19:48:32.151Z,0
2016-09-14T19:49:31.443Z,0
2016-09-14T19:50:31.554Z,0
2016-09-14T19:51:31.988Z,0
2016-09-14T19:52:33.079Z,0
2016-09-14T19:53:31.966Z,0
2016-09-14T19:54:32.404Z,0
2016-09-14T19:55:32.068Z,0
2016-09-14T19:56:45.990Z,0
2016-09-14T19:57:41.836Z,0
2016-09-14T19:58:32.287Z,0
2016-09-14T19:59:46.212Z,0
2016-09-14T20:00:31.831Z,0
2016-09-14T20:01:45.917Z,0
2016-09-14T20:02:31.620Z,0
2016-09-14T20:03:31.067Z,0
2016-09-14T20:04:31.719Z,0
2016-09-14T20:05:45.903Z,0
2016-09-14T20:06:45.900Z,0
2016-09-14T20:07:31.902Z,0
2016-09-14T20:08:31.719Z,0
2016-09-14T20:09:30.905Z,0
2016-09-14T20:10:31.229Z,0
2016-09-14T20:11:30.924Z,0
2016-09-14T20:12:45.932Z,0
2016-09-14T20:13:30.851Z,0
2016-09-14T20:14:46.167Z,0
2016-09-14T20:15:30.880Z,0
2016-09-14T20:16:36.170Z,0
2016-09-14T20:17:30.809Z,0
2016-09-14T20:18:45.458Z,0
2016-09-14T20:19:30.733Z,0
2016-09-14T20:20:31.991Z,0
2016-09-14T20:21:30.708Z,0
2016-09-14T20:22:30.982Z,0
2016-09-14T20:23:32.772Z,0
2016-09-14T20:24:31.675Z,0
2016-09-14T20:25:30.645Z,0
2016-09-14T20:26:31.842Z,0
2016-09-14T20:28:30.890Z,0
2016-09-14T20:29:31.672Z,0
2016-09-14T20:30:30.525Z,0
2016-09-14T20:31:30.661Z,0
2016-09-14T20:32:30.513Z,0
2016-09-14T20:33:30.464Z,0
2016-09-14T20:34:45.445Z,0
2016-09-14T20:35:30.627Z,0
2016-09-14T20:36:30.763Z,0
2016-09-14T20:37:31.890Z,0
2016-09-14T20:38:30.685Z,0
2016-09-14T20:39:30.739Z,0
2016-09-14T20:40:32.244Z,0
2016-09-14T20:41:30.367Z,0
2016-09-14T20:42:30.302Z,0
2016-09-14T20:43:30.582Z,0
2016-09-14T20:44:31.825Z,0
2016-09-14T20:45:44.975Z,0
2016-09-14T20:46:30.906Z,0
2016-09-14T20:47:44.870Z,0
2016-09-14T20:48:30.179Z,0
2016-09-14T20:49:30.856Z,0
2016-09-14T20:50:30.582Z,0
2016-09-14T20:51:30.107Z,0
2016-09-14T20:52:32.871Z,0
2016-09-14T20:53:31.868Z,0
2016-09-14T20:54:45.436Z,0
2016-09-14T20:55:29.972Z,0
2016-09-14T20:56:30.094Z,0
2016-09-14T20:57:29.957Z,0
2016-09-14T20:58:30.420Z,0
2016-09-14T20:59:29.912Z,0
2016-09-14T21:00:31.721Z,0
2016-09-14T21:01:30.474Z,0
2016-09-14T21:02:29.922Z,0
2016-09-14T21:03:29.847Z,0
2016-09-14T21:04:30.287Z,0
2016-09-14T21:05:29.881Z,0
2016-09-14T21:06:30.091Z,0
2016-09-14T21:07:29.732Z,0
2016-09-14T21:08:29.739Z,0
2016-09-14T21:09:44.492Z,0
2016-09-14T21:10:30.087Z,0
2016-09-14T21:11:30.387Z,0
2016-09-14T21:12:30.460Z,0
2016-09-14T21:13:29.651Z,0
2016-09-14T21:14:29.792Z,0
2016-09-14T21:15:29.924Z,0
2016-09-14T21:16:30.771Z,0
2016-09-14T21:17:29.976Z,0
2016-09-14T21:18:44.191Z,0
2016-09-14T21:19:29.986Z,0
2016-09-14T21:20:29.680Z,0
2016-09-14T21:21:29.645Z,0
2016-09-14T21:22:29.907Z,0
2016-09-14T21:23:29.485Z,0
2016-09-14T21:24:29.621Z,0
2016-09-14T21:26:29.736Z,0
2016-09-14T21:27:44.370Z,0
2016-09-14T21:28:30.242Z,0
2016-09-14T21:29:44.003Z,0
2016-09-14T21:30:29.634Z,0
2016-09-14T21:32:29.444Z,0
2016-09-14T21:33:29.766Z,0
2016-09-14T21:34:30.126Z,0
2016-09-14T21:35:29.505Z,0
2016-09-14T21:37:30.171Z,0
2016-09-14T21:38:29.429Z,0
2016-09-14T21:39:29.621Z,0
2016-09-14T21:40:44.140Z,0
2016-09-14T21:41:29.885Z,0
2016-09-14T21:42:29.674Z,0
2016-09-14T21:43:29.594Z,0
2016-09-14T21:44:29.354Z,0
2016-09-14T21:46:29.760Z,0
2016-09-14T21:48:29.255Z,0
2016-09-14T21:49:29.881Z,0
2016-09-14T21:50:28.798Z,0
2016-09-14T21:51:29.162Z,0
2016-09-14T21:52:29.957Z,0
2016-09-14T21:53:28.829Z,0
2016-09-14T21:54:28.742Z,0
2016-09-14T21:55:29.837Z,0
2016-09-14T21:56:29.621Z,0
2016-09-14T21:57:29.500Z,0
2016-09-14T21:58:43.630Z,0
2016-09-14T21:59:28.587Z,0
2016-09-14T22:00:28.588Z,0
2016-09-14T22:01:28.614Z,0
2016-09-14T22:02:29.123Z,0
2016-09-14T22:03:28.734Z,0
2016-09-14T22:04:29.876Z,0
2016-09-14T22:05:29.051Z,0
2016-09-14T22:08:28.429Z,0
2016-09-14T22:09:33.934Z,0
2016-09-14T22:10:28.621Z,0
2016-09-14T22:11:43.549Z,0
2016-09-14T22:12:28.298Z,0
2016-09-14T22:13:28.345Z,0
2016-09-14T22:14:29.417Z,0
2016-09-14T22:15:28.751Z,0
2016-09-14T22:16:29.578Z,0
2016-09-14T22:17:28.625Z,0
2016-09-14T22:18:28.203Z,0
2016-09-14T22:19:29.413Z,0
2016-09-14T22:20:43.706Z,0
2016-09-14T22:21:28.228Z,0
2016-09-14T22:22:29.459Z,0
2016-09-14T22:23:29.605Z,0
2016-09-14T22:24:28.314Z,0
2016-09-14T22:25:29.772Z,0
2016-09-14T22:26:29.313Z,0
2016-09-14T22:27:43.667Z,0
2016-09-14T22:28:28.433Z,0
2016-09-14T22:29:43.246Z,0
2016-09-14T22:30:29.548Z,0
2016-09-14T22:31:27.855Z,0
2016-09-14T22:32:28.602Z,0
2016-09-14T22:33:28.513Z,0
2016-09-14T22:34:28.074Z,0
2016-09-14T22:35:27.991Z,0
2016-09-14T22:36:28.387Z,0
2016-09-14T22:37:28.398Z,0
2016-09-14T22:38:28.359Z,0
2016-09-14T22:39:28.425Z,0
2016-09-14T22:41:28.873Z,0
2016-09-14T22:42:43.634Z,0
2016-09-14T22:43:27.930Z,0
2016-09-14T22:44:42.892Z,0
2016-09-14T22:45:28.049Z,0
2016-09-14T22:46:43.194Z,0
2016-09-14T22:47:27.911Z,0
2016-09-14T22:48:27.920Z,0
2016-09-14T22:49:27.639Z,0
2016-09-14T22:50:29.320Z,0
2016-09-14T22:51:27.647Z,0
2016-09-14T22:52:27.992Z,0
2016-09-14T22:53:42.316Z,0
2016-09-14T22:54:27.338Z,0
2016-09-14T22:55:42.409Z,0
2016-09-14T22:56:27.289Z,0
2016-09-14T22:57:27.333Z,0
2016-09-14T22:58:27.949Z,0
2016-09-14T22:59:27.496Z,0
2016-09-14T23:00:43.313Z,0
2016-09-14T23:01:28.021Z,0
2016-09-14T23:02:27.184Z,0
2016-09-14T23:03:27.743Z,0
2016-09-14T23:04:28.104Z,0
2016-09-14T23:05:28.019Z,0
2016-09-14T23:06:27.849Z,0
2016-09-14T23:07:27.115Z,0
2016-09-14T23:08:27.372Z,0
2016-09-14T23:09:27.180Z,0
2016-09-14T23:10:27.297Z,0
2016-09-14T23:11:27.439Z,0
2016-09-14T23:12:28.348Z,0
2016-09-14T23:13:27.412Z,0
2016-09-14T23:14:42.051Z,0
2016-09-14T23:15:27.130Z,0
2016-09-14T23:16:41.882Z,0
2016-09-14T23:17:27.209Z,0
2016-09-14T23:18:27.371Z,0
2016-09-14T23:19:28.413Z,0
2016-09-14T23:20:27.623Z,0
2016-09-14T23:21:27.014Z,0
2016-09-14T23:22:27.455Z,0
2016-09-14T23:23:27.019Z,0
2016-09-14T23:24:26.905Z,0
2016-09-14T23:25:27.065Z,0
2016-09-14T23:26:27.340Z,0
2016-09-14T23:27:27.274Z,0
2016-09-14T23:28:27.438Z,0
2016-09-14T23:29:41.793Z,0
2016-09-14T23:30:28.097Z,0
2016-09-14T23:31:26.877Z,0
2016-09-14T23:32:26.720Z,0
2016-09-14T23:33:27.245Z,0
2016-09-14T23:34:27.429Z,0
2016-09-14T23:35:27.230Z,0
2016-09-14T23:36:41.156Z,0
2016-09-14T23:37:27.208Z,0
2016-09-14T23:38:26.396Z,0
2016-09-14T23:39:26.341Z,0
2016-09-14T23:40:27.899Z,0
2016-09-14T23:41:26.380Z,0
2016-09-14T23:42:26.504Z,0
2016-09-14T23:43:26.345Z,0
2016-09-14T23:44:27.416Z,0
2016-09-14T23:45:26.808Z,0
2016-09-14T23:46:27.136Z,0
2016-09-14T23:47:27.072Z,0
2016-09-14T23:48:26.163Z,0
2016-09-14T23:49:26.812Z,0
2016-09-14T23:50:26.179Z,0
2016-09-14T23:51:26.153Z,0
2016-09-14T23:52:26.389Z,0
2016-09-14T23:53:26.468Z,0
2016-09-14T23:54:26.397Z,0
2016-09-14T23:55:42.118Z,0
2016-09-14T23:56:26.345Z,0
2016-09-14T23:57:26.420Z,0
2016-09-14T23:58:26.797Z,0
2016-09-14T23:59:26.595Z,0
